Time;durP1;ratioP1;P1;durP2;ratioP2;P2;SDS_P1;SDS_P2;PMS_P1;PMS_P2;Temp;Humidity;BMP_temperature;BMP_pressure;BME280_temperature;BME280_humidity;BME280_pressure;Samples;Min_cycle;Max_cycle;Signal;HPM_P1;HPM_P2
2023/06/17 00:01:14;;;;;;;;;;;;;;;25.62;41.54;99989.52;103500;1285;62458;-82
2023/06/17 00:03:40;;;;;;;;;;;;;;;25.61;41.44;99987.04;103630;1290;62278;-82
2023/06/17 00:06:08;;;;;;;;;;;;;;;25.62;41.57;99986.12;103754;1285;62248;-82
2023/06/17 00:08:34;;;;;;;;;;;;;;;25.62;41.52;99983.75;103557;1285;62647;-82
2023/06/17 00:11:00;;;;;;;;;;;;;;;25.62;41.59;99987.74;103442;1285;62221;-82
2023/06/17 00:13:26;;;;;;;;;;;;;;;25.61;41.36;99987.94;103548;1286;62227;-82
2023/06/17 00:15:53;;;;;;;;;;;;;;;25.61;41.42;99986.34;103487;1285;62219;-82
2023/06/17 00:18:22;;;;;;;;;;;;;;;25.61;41.52;99984.90;103491;1290;62131;-82
2023/06/17 00:20:48;;;;;;;;;;;;;;;25.60;41.44;99987.83;103521;1288;62120;-82
2023/06/17 00:23:13;;;;;;;;;;;;;;;25.60;41.56;99986.91;103590;1290;62124;-82
2023/06/17 00:25:38;;;;;;;;;;;;;;;25.61;41.61;99990.88;103441;1290;62151;-82
2023/06/17 00:28:05;;;;;;;;;;;;;;;25.61;41.52;99991.76;103490;1287;62279;-82
2023/06/17 00:30:30;;;;;;;;;;;;;;;25.61;41.69;99988.01;103432;1288;63433;-82
2023/06/17 00:32:55;;;;;;;;;;;;;;;25.60;41.45;99989.66;103654;1288;62109;-82
2023/06/17 00:35:21;;;;;;;;;;;;;;;25.60;41.50;99987.46;103477;1288;62231;-82
2023/06/17 00:37:46;;;;;;;;;;;;;;;25.61;41.59;99988.92;103439;1289;62448;-82
2023/06/17 00:40:13;;;;;;;;;;;;;;;25.60;41.41;99989.16;103644;1288;62835;-82
2023/06/17 00:42:39;;;;;;;;;;;;;;;25.60;41.52;99991.45;103421;1288;62279;-82
2023/06/17 00:45:06;;;;;;;;;;;;;;;25.60;41.47;99994.33;103467;1288;63250;-82
2023/06/17 00:47:31;;;;;;;;;;;;;;;25.60;41.42;99998.85;103514;1289;62184;-82
2023/06/17 00:49:57;;;;;;;;;;;;;;;25.60;41.62;100004.98;103527;1289;62168;-82
2023/06/17 00:52:22;;;;;;;;;;;;;;;25.60;41.62;100001.21;103520;1288;63315;-82
2023/06/17 00:54:48;;;;;;;;;;;;;;;25.59;41.51;99998.54;103378;1286;62401;-82
2023/06/17 00:57:14;;;;;;;;;;;;;;;25.60;41.37;100005.73;103535;1290;62111;-82
2023/06/17 00:59:41;;;;;;;;;;;;;;;25.60;41.38;100011.52;103425;1290;62147;-82
2023/06/17 01:02:09;;;;;;;;;;;;;;;25.59;41.38;100007.22;103561;1286;63373;-82
2023/06/17 01:04:46;;;;;;;;;;;;;;;25.59;41.55;100011.38;103523;1288;62145;-82
2023/06/17 01:07:24;;;;;;;;;;;;;;;25.59;41.56;100005.06;103488;1287;64814;-82
2023/06/17 01:09:51;;;;;;;;;;;;;;;25.60;41.49;100010.80;103552;1284;67410;-82
2023/06/17 01:12:17;;;;;;;;;;;;;;;25.59;41.61;100014.96;103616;1285;62133;-82
2023/06/17 01:14:42;;;;;;;;;;;;;;;25.59;41.55;100009.58;103547;1286;62339;-83
2023/06/17 01:17:12;;;;;;;;;;;;;;;25.60;41.57;100011.52;103642;1289;62278;-82
2023/06/17 01:19:39;;;;;;;;;;;;;;;25.59;41.56;100005.46;103575;1285;66510;-82
2023/06/17 01:22:06;;;;;;;;;;;;;;;25.59;41.56;100005.09;103636;1285;62261;-82
2023/06/17 01:24:33;;;;;;;;;;;;;;;25.59;41.49;100007.98;103608;1288;62177;-82
2023/06/17 01:27:02;;;;;;;;;;;;;;;25.59;41.49;100013.02;103659;1290;63958;-82
2023/06/17 01:29:32;;;;;;;;;;;;;;;25.58;41.47;100007.85;103431;1285;65633;-82
2023/06/17 01:31:58;;;;;;;;;;;;;;;25.59;41.49;100006.40;103617;1289;62130;-82
2023/06/17 01:34:44;;;;;;;;;;;;;;;25.59;41.61;100004.75;103509;1293;62070;-81
2023/06/17 01:37:11;;;;;;;;;;;;;;;25.58;41.51;100006.40;103368;1285;73612;-82
2023/06/17 01:39:36;;;;;;;;;;;;;;;25.59;41.73;100004.92;103609;1291;66685;-82
2023/06/17 01:42:02;;;;;;;;;;;;;;;25.58;41.65;100006.05;103673;1285;63464;-82
2023/06/17 01:44:27;;;;;;;;;;;;;;;25.59;41.61;100007.11;103652;1285;62871;-82
2023/06/17 01:46:53;;;;;;;;;;;;;;;25.58;41.50;100010.48;103538;1291;62188;-82
2023/06/17 01:49:19;;;;;;;;;;;;;;;25.58;41.62;100009.50;103451;1292;62200;-82
2023/06/17 01:51:44;;;;;;;;;;;;;;;25.58;41.46;100006.59;103581;1285;62186;-82
2023/06/17 01:54:10;;;;;;;;;;;;;;;25.58;41.61;100006.27;103621;1285;62142;-82
2023/06/17 01:56:36;;;;;;;;;;;;;;;25.58;41.71;100006.09;103562;1287;62233;-82
2023/06/17 01:59:01;;;;;;;;;;;;;;;25.57;41.58;100002.21;103608;1289;63391;-82
2023/06/17 02:01:27;;;;;;;;;;;;;;;25.57;41.44;99997.71;103571;1291;62225;-82
2023/06/17 02:03:52;;;;;;;;;;;;;;;25.58;41.50;99991.54;103466;1291;62281;-82
2023/06/17 02:06:18;;;;;;;;;;;;;;;25.58;41.56;99996.98;103601;1291;62476;-82
2023/06/17 02:08:45;;;;;;;;;;;;;;;25.57;41.50;99999.53;103623;1285;63398;-82
2023/06/17 02:11:10;;;;;;;;;;;;;;;25.57;41.54;100005.98;103527;1290;62202;-82
2023/06/17 02:13:36;;;;;;;;;;;;;;;25.57;41.36;100007.61;103533;1286;62246;-82
2023/06/17 02:16:01;;;;;;;;;;;;;;;25.57;41.51;100005.86;103566;1291;63302;-82
2023/06/17 02:18:28;;;;;;;;;;;;;;;25.57;41.42;100007.65;103696;1287;62203;-82
2023/06/17 02:20:53;;;;;;;;;;;;;;;25.57;41.44;100003.83;103559;1291;62114;-82
2023/06/17 02:23:19;;;;;;;;;;;;;;;25.57;41.63;100004.41;103537;1291;63930;-82
2023/06/17 02:25:46;;;;;;;;;;;;;;;25.56;41.45;100002.52;103600;1285;62756;-82
2023/06/17 02:28:12;;;;;;;;;;;;;;;25.57;41.52;100006.08;103653;1285;62431;-82
2023/06/17 02:30:37;;;;;;;;;;;;;;;25.57;41.65;100008.39;103653;1291;62120;-82
2023/06/17 02:33:03;;;;;;;;;;;;;;;25.56;41.54;100008.98;103572;1285;62757;-82
2023/06/17 02:35:29;;;;;;;;;;;;;;;25.57;41.57;100012.75;103537;1285;63305;-83
2023/06/17 02:37:54;;;;;;;;;;;;;;;25.56;41.56;100014.02;103579;1291;62171;-81
2023/06/17 02:40:20;;;;;;;;;;;;;;;25.56;41.57;100014.23;103627;1291;62307;-82
2023/06/17 02:42:45;;;;;;;;;;;;;;;25.56;41.59;100011.90;103512;1285;63297;-82
2023/06/17 02:45:12;;;;;;;;;;;;;;;25.56;41.47;100009.73;103593;1285;63281;-82
2023/06/17 02:47:40;;;;;;;;;;;;;;;25.56;41.43;100013.52;103532;1291;62191;-82
2023/06/17 02:50:06;;;;;;;;;;;;;;;25.56;41.49;100011.73;103567;1290;61977;-82
2023/06/17 02:52:34;;;;;;;;;;;;;;;25.56;41.44;100015.34;103533;1291;63340;-82
2023/06/17 02:54:59;;;;;;;;;;;;;;;25.56;41.49;100024.33;103547;1287;64012;-81
2023/06/17 02:57:25;;;;;;;;;;;;;;;25.56;41.45;100028.52;103558;1291;62261;-82
2023/06/17 02:59:50;;;;;;;;;;;;;;;25.55;41.57;100028.71;103599;1286;62185;-82
2023/06/17 03:02:17;;;;;;;;;;;;;;;25.55;41.49;100026.05;103606;1291;62098;-82
2023/06/17 03:04:43;;;;;;;;;;;;;;;25.56;41.51;100029.23;103289;1291;62617;-82
2023/06/17 03:07:08;;;;;;;;;;;;;;;25.56;41.65;100034.61;103301;1291;62160;-81
2023/06/17 03:09:34;;;;;;;;;;;;;;;25.56;41.60;100039.80;103261;1293;66707;-82
2023/06/17 03:11:59;;;;;;;;;;;;;;;25.57;41.59;100041.23;103177;1288;62237;-82
2023/06/17 03:14:26;;;;;;;;;;;;;;;25.56;41.48;100038.91;103197;1293;62266;-82
2023/06/17 03:16:51;;;;;;;;;;;;;;;25.56;41.53;100042.33;103118;1288;62188;-82
2023/06/17 03:19:17;;;;;;;;;;;;;;;25.56;41.66;100044.13;103101;1288;63483;-82
2023/06/17 03:21:45;;;;;;;;;;;;;;;25.56;41.59;100047.20;103129;1288;62277;-82
2023/06/17 03:24:10;;;;;;;;;;;;;;;25.56;41.57;100045.41;103145;1288;62189;-83
2023/06/17 03:26:35;;;;;;;;;;;;;;;25.56;41.45;100043.74;103404;1288;62259;-81
2023/06/17 03:29:01;;;;;;;;;;;;;;;25.57;41.62;100042.47;103353;1288;64164;-82
2023/06/17 03:31:28;;;;;;;;;;;;;;;25.56;41.56;100043.21;103318;1292;62967;-82
2023/06/17 03:33:53;;;;;;;;;;;;;;;25.56;41.47;100045.38;103155;1289;62145;-82
2023/06/17 03:36:28;;;;;;;;;;;;;;;25.56;41.71;100054.02;103261;1291;62262;-82
2023/06/17 03:38:54;;;;;;;;;;;;;;;25.57;41.68;100052.37;103738;1285;64942;-81
2023/06/17 03:41:20;;;;;;;;;;;;;;;25.57;41.46;100055.92;103644;1291;62168;-82
2023/06/17 03:43:45;;;;;;;;;;;;;;;25.57;41.65;100057.73;103629;1285;62108;-82
2023/06/17 03:46:11;;;;;;;;;;;;;;;25.57;41.51;100060.42;103614;1291;63006;-83
2023/06/17 03:48:36;;;;;;;;;;;;;;;25.58;41.59;100059.84;103581;1290;62248;-82
2023/06/17 03:51:02;;;;;;;;;;;;;;;25.57;41.71;100060.21;103594;1286;63746;-82
2023/06/17 03:53:28;;;;;;;;;;;;;;;25.58;41.60;100059.10;103576;1287;62202;-82
2023/06/17 03:55:53;;;;;;;;;;;;;;;25.58;41.77;100059.98;103544;1285;62213;-82
2023/06/17 03:58:19;;;;;;;;;;;;;;;25.58;41.66;100066.46;103619;1285;62185;-82
2023/06/17 04:00:44;;;;;;;;;;;;;;;25.58;41.72;100061.23;103662;1291;62231;-82
2023/06/17 04:03:11;;;;;;;;;;;;;;;25.58;41.78;100058.90;103572;1286;64286;-82
2023/06/17 04:05:37;;;;;;;;;;;;;;;25.59;41.74;100060.99;103647;1290;62120;-83
2023/06/17 04:08:04;;;;;;;;;;;;;;;25.58;41.63;100058.32;103652;1288;63743;-82
2023/06/17 04:10:29;;;;;;;;;;;;;;;25.58;41.76;100059.02;103465;1288;62435;-82
2023/06/17 04:12:55;;;;;;;;;;;;;;;25.59;41.77;100061.91;103478;1288;62362;-82
2023/06/17 04:15:20;;;;;;;;;;;;;;;25.59;41.84;100056.67;103635;1291;62200;-82
2023/06/17 04:17:46;;;;;;;;;;;;;;;25.58;41.68;100051.45;103567;1288;62211;-82
2023/06/17 04:20:12;;;;;;;;;;;;;;;25.58;41.77;100051.26;103553;1291;62213;-82
2023/06/17 04:22:41;;;;;;;;;;;;;;;25.58;41.70;100047.85;103493;1289;63245;-82
2023/06/17 04:25:07;;;;;;;;;;;;;;;25.58;41.82;100048.22;103515;1288;64751;-82
2023/06/17 04:27:33;;;;;;;;;;;;;;;25.58;41.81;100049.67;103535;1287;62281;-82
2023/06/17 04:29:59;;;;;;;;;;;;;;;25.58;41.87;100048.38;103600;1286;62192;-82
2023/06/17 04:32:26;;;;;;;;;;;;;;;25.58;41.89;100043.89;103547;1289;62267;-82
2023/06/17 04:34:52;;;;;;;;;;;;;;;25.58;41.70;100043.36;103590;1288;63287;-82
2023/06/17 04:37:18;;;;;;;;;;;;;;;25.59;41.71;100044.00;103446;1288;62211;-82
2023/06/17 04:39:44;;;;;;;;;;;;;;;25.59;41.69;100046.41;103412;1286;62292;-82
2023/06/17 04:42:09;;;;;;;;;;;;;;;25.59;41.58;100052.15;103490;1289;63541;-81
2023/06/17 04:44:38;;;;;;;;;;;;;;;25.58;41.62;100050.02;103612;1291;62355;-82
2023/06/17 04:47:04;;;;;;;;;;;;;;;25.59;41.77;100050.00;103403;1294;63938;-82
2023/06/17 04:49:31;;;;;;;;;;;;;;;25.58;41.85;100047.88;103510;1286;62184;-82
2023/06/17 04:51:56;;;;;;;;;;;;;;;25.59;41.95;100049.83;103398;1291;62293;-82
2023/06/17 04:54:24;;;;;;;;;;;;;;;25.59;41.76;100053.77;103443;1288;62264;-82
2023/06/17 04:56:51;;;;;;;;;;;;;;;25.59;41.85;100056.63;103483;1290;72474;-82
2023/06/17 04:59:19;;;;;;;;;;;;;;;25.59;41.75;100062.95;103564;1286;66613;-82
2023/06/17 05:01:44;;;;;;;;;;;;;;;25.59;41.72;100065.09;103640;1290;62083;-82
2023/06/17 05:04:10;;;;;;;;;;;;;;;25.59;41.89;100068.87;103446;1288;63094;-82
2023/06/17 05:06:35;;;;;;;;;;;;;;;25.59;41.65;100071.37;103434;1290;62249;-82
2023/06/17 05:09:01;;;;;;;;;;;;;;;25.59;41.90;100070.66;103424;1288;62261;-82
2023/06/17 05:11:26;;;;;;;;;;;;;;;25.60;42.02;100071.73;103516;1288;63460;-82
2023/06/17 05:13:51;;;;;;;;;;;;;;;25.59;41.80;100071.20;103533;1288;63350;-82
2023/06/17 05:16:17;;;;;;;;;;;;;;;25.59;41.90;100067.45;103404;1291;63499;-82
2023/06/17 05:18:42;;;;;;;;;;;;;;;25.58;41.98;100067.50;103631;1286;62213;-82
2023/06/17 05:21:08;;;;;;;;;;;;;;;25.58;41.72;100070.71;103490;1292;62269;-82
2023/06/17 05:23:33;;;;;;;;;;;;;;;25.59;41.85;100072.86;103514;1290;63271;-82
2023/06/17 05:25:59;;;;;;;;;;;;;;;25.58;41.90;100075.59;103435;1290;63522;-82
2023/06/17 05:28:24;;;;;;;;;;;;;;;25.59;41.76;100077.75;103464;1287;62150;-83
2023/06/17 05:30:50;;;;;;;;;;;;;;;25.59;41.95;100082.07;103409;1291;62191;-82
2023/06/17 05:33:16;;;;;;;;;;;;;;;25.58;41.94;100085.85;103535;1290;63357;-82
2023/06/17 05:35:41;;;;;;;;;;;;;;;25.58;41.87;100090.58;103455;1288;62195;-82
2023/06/17 05:38:07;;;;;;;;;;;;;;;25.59;42.09;100089.44;103473;1295;62110;-82
2023/06/17 05:40:33;;;;;;;;;;;;;;;25.59;42.06;100088.73;103619;1291;62382;-82
2023/06/17 05:42:58;;;;;;;;;;;;;;;25.59;41.99;100091.43;103478;1291;62240;-82
2023/06/17 05:45:25;;;;;;;;;;;;;;;25.59;42.12;100095.20;103562;1290;62206;-82
2023/06/17 05:47:51;;;;;;;;;;;;;;;25.59;41.94;100101.48;103496;1288;62290;-82
2023/06/17 05:50:16;;;;;;;;;;;;;;;25.59;42.00;100100.42;103463;1290;64265;-82
2023/06/17 05:52:42;;;;;;;;;;;;;;;25.59;41.89;100103.46;103616;1290;62179;-82
2023/06/17 05:55:09;;;;;;;;;;;;;;;25.59;42.01;100104.88;103456;1286;62217;-82
2023/06/17 05:57:35;;;;;;;;;;;;;;;25.59;41.80;100114.44;103479;1290;67319;-82
2023/06/17 06:00:01;;;;;;;;;;;;;;;25.59;42.06;100116.27;103636;1286;63353;-82
2023/06/17 06:02:26;;;;;;;;;;;;;;;25.59;42.05;100112.45;103337;1291;63404;-81
2023/06/17 06:04:52;;;;;;;;;;;;;;;25.59;41.83;100104.71;103528;1290;62227;-82
2023/06/17 06:07:17;;;;;;;;;;;;;;;25.59;41.85;100110.48;103525;1288;62078;-82
2023/06/17 06:09:43;;;;;;;;;;;;;;;25.59;42.03;100109.95;103527;1291;67985;-82
2023/06/17 06:12:08;;;;;;;;;;;;;;;25.60;42.05;100113.51;103512;1290;62267;-82
2023/06/17 06:14:35;;;;;;;;;;;;;;;25.60;42.13;100112.05;103484;1290;62191;-82
2023/06/17 06:17:01;;;;;;;;;;;;;;;25.60;42.09;100108.81;103527;1290;62211;-83
2023/06/17 06:19:26;;;;;;;;;;;;;;;25.60;42.08;100113.31;103587;1290;62796;-82
2023/06/17 06:21:52;;;;;;;;;;;;;;;25.60;42.19;100110.61;103486;1291;62284;-82
2023/06/17 06:24:17;;;;;;;;;;;;;;;25.60;42.17;100111.15;103508;1291;62224;-81
2023/06/17 06:26:42;;;;;;;;;;;;;;;25.59;42.28;100112.96;103493;1290;62295;-81
2023/06/17 06:29:09;;;;;;;;;;;;;;;25.60;42.21;100113.98;103458;1288;63317;-81
2023/06/17 06:31:35;;;;;;;;;;;;;;;25.60;42.20;100116.33;103466;1288;62131;-81
2023/06/17 06:34:01;;;;;;;;;;;;;;;25.60;42.20;100112.70;103534;1290;62236;-82
2023/06/17 06:36:26;;;;;;;;;;;;;;;25.60;42.49;100111.45;103468;1291;63353;-82
2023/06/17 06:38:52;;;;;;;;;;;;;;;25.61;42.16;100113.55;103398;1286;62204;-82
2023/06/17 06:41:17;;;;;;;;;;;;;;;25.61;42.41;100119.12;103456;1286;62668;-83
2023/06/17 06:43:44;;;;;;;;;;;;;;;25.61;42.34;100119.50;103370;1294;62711;-82
2023/06/17 06:46:09;;;;;;;;;;;;;;;25.62;42.40;100123.25;103291;1294;62273;-82
2023/06/17 06:48:35;;;;;;;;;;;;;;;25.62;42.35;100124.46;103093;1295;62296;-82
2023/06/17 06:51:01;;;;;;;;;;;;;;;25.62;42.46;100120.66;103239;1294;62597;-83
2023/06/17 06:53:27;;;;;;;;;;;;;;;25.63;42.50;100126.16;103422;1294;63871;-82
2023/06/17 06:55:52;;;;;;;;;;;;;;;25.63;42.39;100129.95;103305;1289;62359;-82
2023/06/17 06:58:17;;;;;;;;;;;;;;;25.63;42.48;100123.47;103356;1288;62390;-82
2023/06/17 07:00:43;;;;;;;;;;;;;;;25.64;42.32;100127.52;103321;1293;62280;-82
2023/06/17 07:03:10;;;;;;;;;;;;;;;25.64;42.35;100128.73;103407;1290;62489;-82
2023/06/17 07:05:35;;;;;;;;;;;;;;;25.64;42.51;100131.11;103360;1293;63969;-82
2023/06/17 07:08:02;;;;;;;;;;;;;;;25.65;42.56;100134.41;103402;1295;63299;-82
2023/06/17 07:10:27;;;;;;;;;;;;;;;25.65;42.29;100133.14;103458;1290;62322;-82
2023/06/17 07:12:53;;;;;;;;;;;;;;;25.66;42.48;100130.20;103339;1289;62650;-82
2023/06/17 07:15:18;;;;;;;;;;;;;;;25.66;42.44;100129.08;102513;1294;747235;-82
2023/06/17 07:17:44;;;;;;;;;;;;;;;25.66;42.68;100129.47;103500;1293;62149;-82
2023/06/17 07:20:10;;;;;;;;;;;;;;;25.67;42.45;100128.70;103634;1290;67669;-82
2023/06/17 07:22:36;;;;;;;;;;;;;;;25.66;42.49;100129.44;103533;1290;62222;-82
2023/06/17 07:25:02;;;;;;;;;;;;;;;25.67;42.33;100124.14;103694;1291;62213;-81
2023/06/17 07:27:28;;;;;;;;;;;;;;;25.67;42.54;100126.11;103487;1291;62459;-82
2023/06/17 07:29:53;;;;;;;;;;;;;;;25.67;42.67;100128.27;103572;1289;62972;-82
2023/06/17 07:32:19;;;;;;;;;;;;;;;25.68;42.70;100121.54;103679;1287;62179;-82
2023/06/17 07:34:44;;;;;;;;;;;;;;;25.67;42.65;100120.45;103598;1291;62179;-83
2023/06/17 07:37:10;;;;;;;;;;;;;;;25.68;42.54;100119.85;103952;1291;62749;-82
2023/06/17 07:39:36;;;;;;;;;;;;;;;25.68;42.57;100120.56;103909;1289;62349;-82
2023/06/17 07:42:02;;;;;;;;;;;;;;;25.69;42.83;100121.05;103562;1292;63247;-81
2023/06/17 07:44:28;;;;;;;;;;;;;;;25.69;42.72;100115.24;103452;1285;62285;-82
2023/06/17 07:46:53;;;;;;;;;;;;;;;25.70;42.69;100107.58;103674;1291;62188;-82
2023/06/17 07:49:19;;;;;;;;;;;;;;;25.71;42.80;100109.13;103537;1290;62092;-82
2023/06/17 07:51:45;;;;;;;;;;;;;;;25.71;42.70;100106.94;103559;1289;63425;-81
2023/06/17 07:54:10;;;;;;;;;;;;;;;25.71;42.64;100107.62;103572;1291;62516;-81
2023/06/17 07:56:36;;;;;;;;;;;;;;;25.73;42.82;100106.80;103607;1289;62206;-82
2023/06/17 07:59:02;;;;;;;;;;;;;;;25.73;42.71;100106.76;103576;1291;62312;-82
2023/06/17 08:01:27;;;;;;;;;;;;;;;25.74;42.82;100105.58;103683;1291;62283;-82
2023/06/17 08:03:53;;;;;;;;;;;;;;;25.74;42.91;100104.63;103637;1289;63816;-82
2023/06/17 08:06:18;;;;;;;;;;;;;;;25.74;42.70;100100.84;103420;1293;62220;-83
2023/06/17 08:08:45;;;;;;;;;;;;;;;25.75;42.76;100098.09;103686;1289;62287;-82
2023/06/17 08:11:11;;;;;;;;;;;;;;;25.76;42.78;100097.32;103675;1291;62117;-82
2023/06/17 08:13:38;;;;;;;;;;;;;;;25.76;42.83;100099.41;103729;1290;63308;-82
2023/06/17 08:16:03;;;;;;;;;;;;;;;25.77;42.94;100099.11;103725;1289;62683;-82
2023/06/17 08:18:29;;;;;;;;;;;;;;;25.78;42.90;100098.90;103691;1288;62114;-82
2023/06/17 08:20:55;;;;;;;;;;;;;;;25.77;42.99;100098.95;103598;1289;62205;-82
2023/06/17 08:23:20;;;;;;;;;;;;;;;25.78;43.01;100095.64;103778;1288;62827;-82
2023/06/17 08:25:46;;;;;;;;;;;;;;;25.78;42.94;100096.89;103631;1290;63380;-82
2023/06/17 08:28:12;;;;;;;;;;;;;;;25.79;43.00;100097.89;103535;1289;62232;-82
2023/06/17 08:30:37;;;;;;;;;;;;;;;25.79;43.00;100098.78;103614;1288;62182;-82
2023/06/17 08:33:03;;;;;;;;;;;;;;;25.79;42.86;100096.63;103695;1289;63574;-82
2023/06/17 08:35:29;;;;;;;;;;;;;;;25.79;42.86;100094.63;103676;1288;62113;-82
2023/06/17 08:37:54;;;;;;;;;;;;;;;25.79;42.73;100097.34;103513;1291;62252;-82
2023/06/17 08:40:22;;;;;;;;;;;;;;;25.80;42.84;100100.86;103632;1288;62197;-82
2023/06/17 08:42:48;;;;;;;;;;;;;;;25.79;42.83;100100.89;103631;1285;62135;-83
2023/06/17 08:45:14;;;;;;;;;;;;;;;25.79;42.88;100103.79;103585;1285;62200;-82
2023/06/17 08:47:39;;;;;;;;;;;;;;;25.80;42.94;100101.77;103634;1285;62159;-82
2023/06/17 08:50:05;;;;;;;;;;;;;;;25.80;42.85;100101.39;103734;1290;62179;-81
2023/06/17 08:52:31;;;;;;;;;;;;;;;25.80;43.08;100097.95;103625;1286;62335;-81
2023/06/17 08:54:57;;;;;;;;;;;;;;;25.80;43.01;100099.71;103741;1285;62523;-81
2023/06/17 08:57:22;;;;;;;;;;;;;;;25.80;42.92;100100.42;103689;1286;62194;-82
2023/06/17 08:59:48;;;;;;;;;;;;;;;25.81;43.10;100098.94;103664;1291;62626;-81
2023/06/17 09:02:14;;;;;;;;;;;;;;;25.81;43.09;100099.81;103672;1285;62199;-81
2023/06/17 09:04:40;;;;;;;;;;;;;;;25.82;42.96;100101.33;103674;1289;62248;-81
2023/06/17 09:07:08;;;;;;;;;;;;;;;25.82;42.98;100101.71;103650;1285;62303;-82
2023/06/17 09:09:34;;;;;;;;;;;;;;;25.82;42.89;100101.71;103682;1290;62220;-82
2023/06/17 09:12:01;;;;;;;;;;;;;;;25.82;43.00;100102.62;103688;1290;62825;-83
2023/06/17 09:14:26;;;;;;;;;;;;;;;25.82;43.03;100095.36;103562;1286;63344;-82
2023/06/17 09:16:52;;;;;;;;;;;;;;;25.82;43.09;100099.86;103677;1288;62200;-82
2023/06/17 09:19:17;;;;;;;;;;;;;;;25.83;42.98;100101.65;103635;1290;62228;-83
2023/06/17 09:21:45;;;;;;;;;;;;;;;25.84;43.04;100101.73;103568;1285;63791;-82
2023/06/17 09:24:11;;;;;;;;;;;;;;;25.84;42.99;100101.55;103726;1288;67558;-82
2023/06/17 09:26:40;;;;;;;;;;;;;;;25.84;42.96;100097.03;103591;1289;62284;-82
2023/06/17 09:29:06;;;;;;;;;;;;;;;25.84;42.98;100095.90;103678;1286;62191;-82
2023/06/17 09:31:33;;;;;;;;;;;;;;;25.84;42.90;100093.95;103619;1291;62128;-82
2023/06/17 09:34:06;;;;;;;;;;;;;;;25.84;43.00;100095.73;103636;1285;66463;-82
2023/06/17 09:36:31;;;;;;;;;;;;;;;25.85;43.05;100093.48;103769;1288;62179;-82
2023/06/17 09:38:57;;;;;;;;;;;;;;;25.85;42.90;100091.16;103722;1285;62188;-82
2023/06/17 09:41:23;;;;;;;;;;;;;;;25.85;43.01;100089.90;103704;1285;62168;-82
2023/06/17 09:43:50;;;;;;;;;;;;;;;25.85;43.04;100088.20;103692;1289;62686;-82
2023/06/17 09:46:16;;;;;;;;;;;;;;;25.85;42.96;100085.41;103745;1286;62564;-82
2023/06/17 09:48:42;;;;;;;;;;;;;;;25.85;42.93;100082.44;103541;1291;62299;-83
2023/06/17 09:51:12;;;;;;;;;;;;;;;25.85;42.99;100083.86;103653;1286;62624;-82
2023/06/17 09:53:38;;;;;;;;;;;;;;;25.86;43.17;100081.48;103722;1286;66956;-81
2023/06/17 09:56:04;;;;;;;;;;;;;;;25.86;43.07;100081.60;103721;1288;63638;-82
2023/06/17 09:58:30;;;;;;;;;;;;;;;25.87;43.10;100084.11;103763;1286;62922;-82
2023/06/17 10:01:00;;;;;;;;;;;;;;;25.87;43.05;100083.73;103624;1289;74962;-82
2023/06/17 10:03:28;;;;;;;;;;;;;;;25.87;43.00;100086.00;103632;1284;66481;-82
2023/06/17 10:06:03;;;;;;;;;;;;;;;25.87;43.15;100084.92;103703;1287;62243;-82
2023/06/17 10:08:29;;;;;;;;;;;;;;;25.87;42.98;100082.77;103782;1288;61937;-82
2023/06/17 10:10:55;;;;;;;;;;;;;;;25.88;43.16;100080.56;103721;1283;62179;-82
2023/06/17 10:13:20;;;;;;;;;;;;;;;25.88;42.99;100078.77;103697;1289;63405;-82
2023/06/17 10:15:46;;;;;;;;;;;;;;;25.87;43.09;100078.23;103857;1285;62193;-82
2023/06/17 10:18:12;;;;;;;;;;;;;;;25.88;42.99;100081.02;103671;1283;62265;-82
2023/06/17 10:20:38;;;;;;;;;;;;;;;25.89;43.02;100077.91;103628;1289;62204;-81
2023/06/17 10:23:03;;;;;;;;;;;;;;;25.89;42.88;100077.77;103653;1286;62175;-81
2023/06/17 10:25:29;;;;;;;;;;;;;;;25.89;42.94;100075.04;103533;1290;66635;-82
2023/06/17 10:27:55;;;;;;;;;;;;;;;25.90;42.95;100070.61;103855;1283;62207;-82
2023/06/17 10:30:27;;;;;;;;;;;;;;;25.90;43.04;100067.49;103759;1285;62117;-82
2023/06/17 10:33:01;;;;;;;;;;;;;;;25.91;42.93;100066.56;103813;1292;64931;-81
2023/06/17 10:35:45;;;;;;;;;;;;;;;25.91;42.99;100067.38;103899;1286;66541;-81
2023/06/17 10:38:34;;;;;;;;;;;;;;;25.92;43.01;100053.95;103601;1290;62193;-82
2023/06/17 10:41:00;;;;;;;;;;;;;;;25.92;42.93;100047.97;103664;1285;63098;-82
2023/06/17 10:43:25;;;;;;;;;;;;;;;25.93;42.98;100047.55;103585;1285;62194;-82
2023/06/17 10:45:54;;;;;;;;;;;;;;;25.94;42.86;100049.44;103611;1291;62251;-82
2023/06/17 10:48:20;;;;;;;;;;;;;;;25.94;42.98;100046.36;104019;1287;62136;-81
2023/06/17 10:50:56;;;;;;;;;;;;;;;25.94;43.06;100043.65;104250;1284;62195;-81
2023/06/17 10:53:26;;;;;;;;;;;;;;;25.95;42.97;100044.84;103793;1286;65571;-81
2023/06/17 10:55:51;;;;;;;;;;;;;;;25.95;43.00;100043.94;103822;1285;66633;-82
2023/06/17 10:58:17;;;;;;;;;;;;;;;25.96;42.91;100046.35;103808;1284;62200;-82
2023/06/17 11:00:42;;;;;;;;;;;;;;;25.96;42.86;100048.14;103637;1286;62868;-82
2023/06/17 11:03:08;;;;;;;;;;;;;;;25.96;43.03;100047.64;103746;1288;62229;-82
2023/06/17 11:05:34;;;;;;;;;;;;;;;25.97;42.98;100045.07;103733;1288;62185;-82
2023/06/17 11:08:00;;;;;;;;;;;;;;;25.96;43.10;100042.09;103510;1290;66552;-82
2023/06/17 11:10:27;;;;;;;;;;;;;;;25.96;42.96;100036.81;103621;1286;62136;-82
2023/06/17 11:12:53;;;;;;;;;;;;;;;25.96;42.71;100033.60;103705;1288;63479;-82
2023/06/17 11:15:20;;;;;;;;;;;;;;;25.95;42.91;100030.92;103552;1286;62278;-82
2023/06/17 11:17:45;;;;;;;;;;;;;;;25.95;43.00;100030.04;103526;1291;62199;-81
2023/06/17 11:20:11;;;;;;;;;;;;;;;25.95;42.97;100023.93;103682;1285;63584;-82
2023/06/17 11:22:37;;;;;;;;;;;;;;;25.96;42.84;100021.36;103590;1286;63258;-82
2023/06/17 11:25:03;;;;;;;;;;;;;;;25.95;42.93;100016.73;103581;1286;62201;-82
2023/06/17 11:27:29;;;;;;;;;;;;;;;25.95;42.86;100016.16;103694;1287;62624;-82
2023/06/17 11:29:56;;;;;;;;;;;;;;;25.96;42.97;100015.41;103563;1289;62208;-82
2023/06/17 11:32:21;;;;;;;;;;;;;;;25.95;42.87;100011.69;103523;1285;62247;-82
2023/06/17 11:34:49;;;;;;;;;;;;;;;25.95;43.01;100010.95;103766;1288;62266;-83
2023/06/17 11:37:16;;;;;;;;;;;;;;;25.95;43.08;100007.70;103512;1285;63614;-82
2023/06/17 11:39:42;;;;;;;;;;;;;;;25.95;42.86;100004.46;103555;1286;67661;-83
2023/06/17 11:42:10;;;;;;;;;;;;;;;25.95;42.59;100001.77;103554;1291;62190;-82
2023/06/17 11:44:36;;;;;;;;;;;;;;;25.95;42.89;99999.24;103570;1285;62078;-82
2023/06/17 11:47:06;;;;;;;;;;;;;;;25.94;42.92;99995.13;103488;1285;62291;-82
2023/06/17 11:49:31;;;;;;;;;;;;;;;25.94;43.06;99991.91;103653;1288;66693;-82
2023/06/17 11:52:08;;;;;;;;;;;;;;;25.94;43.10;99989.25;103662;1285;62245;-82
2023/06/17 11:54:34;;;;;;;;;;;;;;;25.94;43.01;99988.13;103672;1286;62165;-82
2023/06/17 11:57:00;;;;;;;;;;;;;;;25.94;42.83;99983.12;103563;1286;63278;-82
2023/06/17 11:59:25;;;;;;;;;;;;;;;25.94;42.76;99980.59;103604;1289;62284;-82
2023/06/17 12:01:51;;;;;;;;;;;;;;;25.93;42.88;99978.61;103590;1286;62221;-82
2023/06/17 12:04:17;;;;;;;;;;;;;;;25.94;42.96;99976.36;103606;1286;62134;-82
2023/06/17 12:06:42;;;;;;;;;;;;;;;25.94;42.78;99970.77;103607;1284;63363;-82
2023/06/17 12:09:10;;;;;;;;;;;;;;;25.94;42.81;99966.11;103679;1288;63904;-82
2023/06/17 12:11:40;;;;;;;;;;;;;;;25.95;42.96;99957.06;103651;1286;66658;-82
2023/06/17 12:14:05;;;;;;;;;;;;;;;25.95;42.87;99951.09;103787;1286;62205;-81
2023/06/17 12:16:33;;;;;;;;;;;;;;;25.95;42.99;99945.51;103584;1285;62144;-82
2023/06/17 12:18:59;;;;;;;;;;;;;;;25.95;42.96;99943.14;103522;1290;64768;-82
2023/06/17 12:21:25;;;;;;;;;;;;;;;25.96;42.91;99941.63;103652;1290;62435;-82
2023/06/17 12:24:03;;;;;;;;;;;;;;;25.96;42.83;99937.46;103720;1285;62198;-82